sensor_id;sensor_type;location;lat;lon;timestamp;pressure;altitude;pressure_sealevel;temperature;humidity
64602;BME280;68371;42.630;23.192;2024-01-30T00:00:30;94046.03;;;-2.07;73.84
64602;BME280;68371;42.630;23.192;2024-01-30T00:02:57;94059.50;;;-2.05;74.10
64602;BME280;68371;42.630;23.192;2024-01-30T00:05:24;94061.72;;;-2.09;74.35
64602;BME280;68371;42.630;23.192;2024-01-30T00:07:52;94054.78;;;-2.08;74.46
64602;BME280;68371;42.630;23.192;2024-01-30T00:10:19;94055.66;;;-2.14;74.16
64602;BME280;68371;42.630;23.192;2024-01-30T00:12:46;94063.00;;;-2.18;74.91
64602;BME280;68371;42.630;23.192;2024-01-30T00:15:12;94065.94;;;-2.14;74.64
64602;BME280;68371;42.630;23.192;2024-01-30T00:17:40;94062.66;;;-2.22;74.15
64602;BME280;68371;42.630;23.192;2024-01-30T00:20:07;94063.00;;;-2.36;75.06
64602;BME280;68371;42.630;23.192;2024-01-30T00:22:34;94062.56;;;-2.33;75.36
64602;BME280;68371;42.630;23.192;2024-01-30T00:25:03;94064.00;;;-2.37;75.44
64602;BME280;68371;42.630;23.192;2024-01-30T00:27:30;94066.16;;;-2.53;75.55
64602;BME280;68371;42.630;23.192;2024-01-30T00:29:57;94067.41;;;-2.44;75.85
64602;BME280;68371;42.630;23.192;2024-01-30T00:32:24;94064.00;;;-2.37;74.98
64602;BME280;68371;42.630;23.192;2024-01-30T00:34:51;94059.78;;;-2.32;74.61
64602;BME280;68371;42.630;23.192;2024-01-30T00:37:17;94056.78;;;-2.29;74.62
64602;BME280;68371;42.630;23.192;2024-01-30T00:39:44;94055.94;;;-2.41;74.64
64602;BME280;68371;42.630;23.192;2024-01-30T00:42:12;94057.28;;;-2.57;75.44
64602;BME280;68371;42.630;23.192;2024-01-30T00:44:39;94055.66;;;-2.51;75.26
64602;BME280;68371;42.630;23.192;2024-01-30T00:47:06;94053.84;;;-2.51;75.31
64602;BME280;68371;42.630;23.192;2024-01-30T00:49:32;94050.69;;;-2.53;75.71
64602;BME280;68371;42.630;23.192;2024-01-30T00:51:59;94045.97;;;-2.56;76.12
64602;BME280;68371;42.630;23.192;2024-01-30T00:54:26;94050.69;;;-2.53;75.67
64602;BME280;68371;42.630;23.192;2024-01-30T00:56:53;94047.56;;;-2.55;76.53
64602;BME280;68371;42.630;23.192;2024-01-30T00:59:21;94046.06;;;-2.44;75.96
64602;BME280;68371;42.630;23.192;2024-01-30T01:01:48;94051.19;;;-2.44;75.55
64602;BME280;68371;42.630;23.192;2024-01-30T01:04:14;94044.34;;;-2.50;75.91
64602;BME280;68371;42.630;23.192;2024-01-30T01:06:40;94050.44;;;-2.70;76.14
64602;BME280;68371;42.630;23.192;2024-01-30T01:09:09;94046.88;;;-2.69;76.81
64602;BME280;68371;42.630;23.192;2024-01-30T01:11:36;94052.78;;;-2.62;76.97
64602;BME280;68371;42.630;23.192;2024-01-30T01:14:03;94041.06;;;-2.57;76.34
64602;BME280;68371;42.630;23.192;2024-01-30T01:16:31;94047.13;;;-2.52;75.92
64602;BME280;68371;42.630;23.192;2024-01-30T01:18:58;94034.91;;;-2.56;76.08
64602;BME280;68371;42.630;23.192;2024-01-30T01:21:25;94031.88;;;-2.72;76.62
64602;BME280;68371;42.630;23.192;2024-01-30T01:23:52;94034.81;;;-2.68;76.32
64602;BME280;68371;42.630;23.192;2024-01-30T01:26:19;94026.78;;;-2.78;76.24
64602;BME280;68371;42.630;23.192;2024-01-30T01:28:46;94040.09;;;-2.82;76.94
64602;BME280;68371;42.630;23.192;2024-01-30T01:31:12;94030.22;;;-2.85;76.85
64602;BME280;68371;42.630;23.192;2024-01-30T01:33:40;94031.81;;;-2.84;76.25
64602;BME280;68371;42.630;23.192;2024-01-30T01:36:07;94027.41;;;-3.02;77.40
64602;BME280;68371;42.630;23.192;2024-01-30T01:38:34;94032.84;;;-2.91;76.84
64602;BME280;68371;42.630;23.192;2024-01-30T01:41:00;94031.28;;;-2.74;77.21
64602;BME280;68371;42.630;23.192;2024-01-30T01:43:27;94030.03;;;-2.65;76.74
64602;BME280;68371;42.630;23.192;2024-01-30T01:45:55;94027.81;;;-2.79;77.04
64602;BME280;68371;42.630;23.192;2024-01-30T01:48:21;94024.59;;;-2.75;77.13
64602;BME280;68371;42.630;23.192;2024-01-30T01:50:50;94025.81;;;-2.77;77.28
64602;BME280;68371;42.630;23.192;2024-01-30T01:53:18;94024.56;;;-2.93;77.59
64602;BME280;68371;42.630;23.192;2024-01-30T01:55:45;94036.41;;;-2.92;78.30
64602;BME280;68371;42.630;23.192;2024-01-30T01:58:13;94030.78;;;-2.83;77.98
64602;BME280;68371;42.630;23.192;2024-01-30T02:00:40;94029.16;;;-2.77;77.87
64602;BME280;68371;42.630;23.192;2024-01-30T02:03:08;94037.00;;;-2.72;77.49
64602;BME280;68371;42.630;23.192;2024-01-30T02:05:36;94038.97;;;-2.67;77.17
64602;BME280;68371;42.630;23.192;2024-01-30T02:08:05;94040.03;;;-2.75;76.97
64602;BME280;68371;42.630;23.192;2024-01-30T02:10:32;94032.50;;;-2.76;76.51
64602;BME280;68371;42.630;23.192;2024-01-30T02:12:59;94024.66;;;-2.82;76.88
64602;BME280;68371;42.630;23.192;2024-01-30T02:15:26;94042.44;;;-2.80;77.29
64602;BME280;68371;42.630;23.192;2024-01-30T02:17:54;94033.34;;;-2.83;76.89
64602;BME280;68371;42.630;23.192;2024-01-30T02:20:22;94038.63;;;-2.96;77.66
64602;BME280;68371;42.630;23.192;2024-01-30T02:22:52;94035.06;;;-2.95;78.23
64602;BME280;68371;42.630;23.192;2024-01-30T02:25:20;94038.19;;;-2.93;78.14
64602;BME280;68371;42.630;23.192;2024-01-30T02:27:56;94028.69;;;-2.92;77.79
64602;BME280;68371;42.630;23.192;2024-01-30T02:30:23;94038.06;;;-2.98;77.63
64602;BME280;68371;42.630;23.192;2024-01-30T02:32:49;94022.34;;;-2.90;77.45
64602;BME280;68371;42.630;23.192;2024-01-30T02:35:16;94031.75;;;-3.02;77.90
64602;BME280;68371;42.630;23.192;2024-01-30T02:37:43;94023.38;;;-3.16;78.24
64602;BME280;68371;42.630;23.192;2024-01-30T02:40:11;94028.41;;;-3.28;78.45
64602;BME280;68371;42.630;23.192;2024-01-30T02:42:38;94038.69;;;-3.28;78.78
64602;BME280;68371;42.630;23.192;2024-01-30T02:45:06;94037.84;;;-3.22;78.19
64602;BME280;68371;42.630;23.192;2024-01-30T02:47:32;94039.19;;;-3.19;78.60
64602;BME280;68371;42.630;23.192;2024-01-30T02:49:59;94039.13;;;-3.12;78.04
64602;BME280;68371;42.630;23.192;2024-01-30T02:52:26;94038.09;;;-3.05;78.02
64602;BME280;68371;42.630;23.192;2024-01-30T02:54:53;94037.69;;;-3.02;78.09
64602;BME280;68371;42.630;23.192;2024-01-30T02:57:21;94038.94;;;-3.11;78.13
64602;BME280;68371;42.630;23.192;2024-01-30T02:59:48;94028.38;;;-3.03;79.41
64602;BME280;68371;42.630;23.192;2024-01-30T03:02:14;94029.84;;;-2.88;77.93
64602;BME280;68371;42.630;23.192;2024-01-30T03:04:41;94035.72;;;-2.81;77.68
64602;BME280;68371;42.630;23.192;2024-01-30T03:07:08;94030.94;;;-2.77;77.44
64602;BME280;68371;42.630;23.192;2024-01-30T03:09:34;94020.44;;;-2.76;77.21
64602;BME280;68371;42.630;23.192;2024-01-30T03:12:02;94024.00;;;-2.77;77.11
64602;BME280;68371;42.630;23.192;2024-01-30T03:14:31;94027.66;;;-2.66;76.47
64602;BME280;68371;42.630;23.192;2024-01-30T03:16:58;94024.69;;;-2.63;76.82
64602;BME280;68371;42.630;23.192;2024-01-30T03:19:25;94017.00;;;-2.70;76.05
64602;BME280;68371;42.630;23.192;2024-01-30T03:21:52;94019.81;;;-2.71;76.45
64602;BME280;68371;42.630;23.192;2024-01-30T03:24:19;94014.50;;;-2.76;76.56
64602;BME280;68371;42.630;23.192;2024-01-30T03:26:46;94007.56;;;-2.76;76.42
64602;BME280;68371;42.630;23.192;2024-01-30T03:29:12;94007.34;;;-2.93;76.93
64602;BME280;68371;42.630;23.192;2024-01-30T03:31:40;94010.69;;;-2.92;76.59
64602;BME280;68371;42.630;23.192;2024-01-30T03:34:07;94012.97;;;-3.03;76.62
64602;BME280;68371;42.630;23.192;2024-01-30T03:36:34;94011.69;;;-2.93;77.26
64602;BME280;68371;42.630;23.192;2024-01-30T03:39:01;93994.28;;;-2.91;76.53
64602;BME280;68371;42.630;23.192;2024-01-30T03:41:27;93996.91;;;-2.98;76.40
64602;BME280;68371;42.630;23.192;2024-01-30T03:43:54;93998.97;;;-2.88;76.59
64602;BME280;68371;42.630;23.192;2024-01-30T03:46:21;94002.41;;;-2.94;76.04
64602;BME280;68371;42.630;23.192;2024-01-30T03:48:49;93996.28;;;-2.93;76.81
64602;BME280;68371;42.630;23.192;2024-01-30T03:51:16;93996.00;;;-3.10;75.98
64602;BME280;68371;42.630;23.192;2024-01-30T03:53:43;93990.16;;;-3.17;76.64
64602;BME280;68371;42.630;23.192;2024-01-30T03:56:11;93989.78;;;-3.21;76.30
64602;BME280;68371;42.630;23.192;2024-01-30T03:58:39;93989.47;;;-3.06;76.31
64602;BME280;68371;42.630;23.192;2024-01-30T04:01:05;93999.53;;;-3.30;75.73
64602;BME280;68371;42.630;23.192;2024-01-30T04:03:32;93991.25;;;-3.32;75.64
64602;BME280;68371;42.630;23.192;2024-01-30T04:06:00;93985.06;;;-3.24;75.52
64602;BME280;68371;42.630;23.192;2024-01-30T04:08:27;93983.06;;;-3.22;75.00
64602;BME280;68371;42.630;23.192;2024-01-30T04:10:53;93994.81;;;-3.33;75.30
64602;BME280;68371;42.630;23.192;2024-01-30T04:13:20;94001.09;;;-3.29;74.96
64602;BME280;68371;42.630;23.192;2024-01-30T04:15:47;93991.34;;;-3.45;75.82
64602;BME280;68371;42.630;23.192;2024-01-30T04:18:13;93996.41;;;-3.32;75.33
64602;BME280;68371;42.630;23.192;2024-01-30T04:20:40;93997.25;;;-3.38;75.01
64602;BME280;68371;42.630;23.192;2024-01-30T04:23:08;93997.75;;;-3.29;75.67
64602;BME280;68371;42.630;23.192;2024-01-30T04:25:35;93991.84;;;-3.30;75.32
64602;BME280;68371;42.630;23.192;2024-01-30T04:28:01;93999.94;;;-3.33;75.21
64602;BME280;68371;42.630;23.192;2024-01-30T04:30:29;93989.38;;;-3.18;75.21
64602;BME280;68371;42.630;23.192;2024-01-30T04:32:55;94005.38;;;-3.16;73.94
64602;BME280;68371;42.630;23.192;2024-01-30T04:35:22;94006.72;;;-3.13;74.45
64602;BME280;68371;42.630;23.192;2024-01-30T04:37:52;94008.63;;;-3.27;74.62
64602;BME280;68371;42.630;23.192;2024-01-30T04:40:20;94014.66;;;-3.40;74.27
64602;BME280;68371;42.630;23.192;2024-01-30T04:42:47;94019.63;;;-3.45;74.99
64602;BME280;68371;42.630;23.192;2024-01-30T04:45:14;94006.31;;;-3.35;74.34
64602;BME280;68371;42.630;23.192;2024-01-30T04:47:40;94012.59;;;-3.31;74.96
64602;BME280;68371;42.630;23.192;2024-01-30T04:50:08;94012.34;;;-3.23;74.48
64602;BME280;68371;42.630;23.192;2024-01-30T04:52:35;94014.19;;;-3.30;74.52
64602;BME280;68371;42.630;23.192;2024-01-30T04:55:02;94025.63;;;-3.26;74.33
64602;BME280;68371;42.630;23.192;2024-01-30T04:57:30;94026.97;;;-3.24;74.17
64602;BME280;68371;42.630;23.192;2024-01-30T04:59:58;94034.25;;;-3.20;74.09
64602;BME280;68371;42.630;23.192;2024-01-30T05:02:25;94030.91;;;-3.21;73.84
64602;BME280;68371;42.630;23.192;2024-01-30T05:04:52;94018.84;;;-3.20;73.38
64602;BME280;68371;42.630;23.192;2024-01-30T05:07:19;94033.06;;;-3.18;73.56
64602;BME280;68371;42.630;23.192;2024-01-30T05:09:45;94035.97;;;-3.39;74.22
64602;BME280;68371;42.630;23.192;2024-01-30T05:12:12;94022.34;;;-3.40;74.16
64602;BME280;68371;42.630;23.192;2024-01-30T05:14:40;94035.41;;;-3.42;74.49
64602;BME280;68371;42.630;23.192;2024-01-30T05:17:07;94037.53;;;-3.32;74.05
64602;BME280;68371;42.630;23.192;2024-01-30T05:19:35;94019.78;;;-3.40;74.09
64602;BME280;68371;42.630;23.192;2024-01-30T05:22:02;94037.81;;;-3.47;75.28
64602;BME280;68371;42.630;23.192;2024-01-30T05:24:28;94039.19;;;-3.44;75.91
64602;BME280;68371;42.630;23.192;2024-01-30T05:26:55;94034.25;;;-3.46;76.01
64602;BME280;68371;42.630;23.192;2024-01-30T05:29:22;94038.44;;;-3.51;76.75
64602;BME280;68371;42.630;23.192;2024-01-30T05:31:50;94034.88;;;-3.50;76.31
64602;BME280;68371;42.630;23.192;2024-01-30T05:34:17;94044.78;;;-3.54;77.15
64602;BME280;68371;42.630;23.192;2024-01-30T05:36:43;93975.06;;;-3.89;75.93
64602;BME280;68371;42.630;23.192;2024-01-30T05:39:10;94045.09;;;-3.44;76.22
64602;BME280;68371;42.630;23.192;2024-01-30T05:41:37;94047.09;;;-3.46;76.44
64602;BME280;68371;42.630;23.192;2024-01-30T05:44:04;94037.16;;;-3.35;76.41
64602;BME280;68371;42.630;23.192;2024-01-30T05:46:31;94038.59;;;-3.46;76.10
64602;BME280;68371;42.630;23.192;2024-01-30T05:48:59;94045.94;;;-3.50;77.07
64602;BME280;68371;42.630;23.192;2024-01-30T05:51:25;94041.44;;;-3.61;77.04
64602;BME280;68371;42.630;23.192;2024-01-30T05:53:53;94037.44;;;-3.50;77.22
64602;BME280;68371;42.630;23.192;2024-01-30T05:56:20;94044.81;;;-3.60;77.00
64602;BME280;68371;42.630;23.192;2024-01-30T05:58:46;94039.63;;;-3.54;76.90
64602;BME280;68371;42.630;23.192;2024-01-30T06:01:13;94034.31;;;-3.52;77.06
64602;BME280;68371;42.630;23.192;2024-01-30T06:03:40;94037.13;;;-3.60;77.28
64602;BME280;68371;42.630;23.192;2024-01-30T06:06:10;94040.13;;;-3.70;77.36
64602;BME280;68371;42.630;23.192;2024-01-30T06:08:37;94038.69;;;-3.59;76.64
64602;BME280;68371;42.630;23.192;2024-01-30T06:11:04;94041.50;;;-3.68;76.66
64602;BME280;68371;42.630;23.192;2024-01-30T06:13:31;94034.81;;;-3.69;76.25
64602;BME280;68371;42.630;23.192;2024-01-30T06:15:58;94039.81;;;-3.80;76.66
64602;BME280;68371;42.630;23.192;2024-01-30T06:18:25;94047.31;;;-3.79;76.38
64602;BME280;68371;42.630;23.192;2024-01-30T06:20:52;94047.25;;;-3.72;76.22
64602;BME280;68371;42.630;23.192;2024-01-30T06:23:20;94046.06;;;-3.70;76.58
64602;BME280;68371;42.630;23.192;2024-01-30T06:25:47;94050.22;;;-3.69;76.54
64602;BME280;68371;42.630;23.192;2024-01-30T06:28:13;94059.53;;;-3.74;76.79
64602;BME280;68371;42.630;23.192;2024-01-30T06:30:40;94061.50;;;-3.76;76.14
64602;BME280;68371;42.630;23.192;2024-01-30T06:33:07;94062.03;;;-3.68;75.96
64602;BME280;68371;42.630;23.192;2024-01-30T06:35:33;94054.38;;;-3.74;76.40
64602;BME280;68371;42.630;23.192;2024-01-30T06:38:01;94061.84;;;-3.66;75.92
64602;BME280;68371;42.630;23.192;2024-01-30T06:40:29;94061.81;;;-3.59;75.41
64602;BME280;68371;42.630;23.192;2024-01-30T06:42:56;94066.78;;;-3.65;75.84
64602;BME280;68371;42.630;23.192;2024-01-30T06:45:22;94064.38;;;-3.59;75.41
64602;BME280;68371;42.630;23.192;2024-01-30T06:47:49;94058.03;;;-3.57;75.26
64602;BME280;68371;42.630;23.192;2024-01-30T06:50:16;94059.16;;;-3.46;75.53
64602;BME280;68371;42.630;23.192;2024-01-30T06:52:42;94060.16;;;-3.47;74.68
64602;BME280;68371;42.630;23.192;2024-01-30T06:55:10;94055.44;;;-3.50;75.08
64602;BME280;68371;42.630;23.192;2024-01-30T06:57:38;94058.78;;;-3.50;75.21
64602;BME280;68371;42.630;23.192;2024-01-30T07:00:06;94058.38;;;-3.47;75.03
64602;BME280;68371;42.630;23.192;2024-01-30T07:02:32;94055.38;;;-3.44;73.98
64602;BME280;68371;42.630;23.192;2024-01-30T07:04:59;94053.19;;;-3.40;73.94
64602;BME280;68371;42.630;23.192;2024-01-30T07:07:26;94055.06;;;-3.22;73.72
64602;BME280;68371;42.630;23.192;2024-01-30T07:09:54;94061.19;;;-3.23;73.73
64602;BME280;68371;42.630;23.192;2024-01-30T07:12:21;94060.72;;;-3.13;72.95
64602;BME280;68371;42.630;23.192;2024-01-30T07:14:51;94049.44;;;-2.87;72.21
64602;BME280;68371;42.630;23.192;2024-01-30T07:17:17;94056.78;;;-2.91;71.57
64602;BME280;68371;42.630;23.192;2024-01-30T07:19:44;94064.88;;;-2.87;70.27
64602;BME280;68371;42.630;23.192;2024-01-30T07:22:11;94054.97;;;-2.90;70.13
64602;BME280;68371;42.630;23.192;2024-01-30T07:24:42;94054.13;;;-2.84;70.51
64602;BME280;68371;42.630;23.192;2024-01-30T07:27:10;94053.28;;;-2.78;68.83
64602;BME280;68371;42.630;23.192;2024-01-30T07:29:36;94051.16;;;-2.81;67.94
64602;BME280;68371;42.630;23.192;2024-01-30T07:32:05;94043.06;;;-2.85;68.74
64602;BME280;68371;42.630;23.192;2024-01-30T07:34:31;94046.16;;;-2.76;68.77
64602;BME280;68371;42.630;23.192;2024-01-30T07:36:58;94045.94;;;-2.74;68.43
64602;BME280;68371;42.630;23.192;2024-01-30T07:39:25;94051.16;;;-2.81;67.61
64602;BME280;68371;42.630;23.192;2024-01-30T07:41:51;94054.44;;;-2.74;68.60
64602;BME280;68371;42.630;23.192;2024-01-30T07:44:18;94046.69;;;-2.67;68.02
64602;BME280;68371;42.630;23.192;2024-01-30T07:46:45;94048.13;;;-2.53;67.88
64602;BME280;68371;42.630;23.192;2024-01-30T07:49:14;94048.25;;;-2.48;67.91
64602;BME280;68371;42.630;23.192;2024-01-30T07:51:40;94039.28;;;-2.38;66.38
64602;BME280;68371;42.630;23.192;2024-01-30T07:54:11;94027.34;;;-2.33;65.92
64602;BME280;68371;42.630;23.192;2024-01-30T07:56:38;94040.78;;;-2.31;66.25
64602;BME280;68371;42.630;23.192;2024-01-30T07:59:05;94044.53;;;-2.33;65.58
64602;BME280;68371;42.630;23.192;2024-01-30T08:01:31;94039.91;;;-2.25;66.59
64602;BME280;68371;42.630;23.192;2024-01-30T08:03:58;94040.50;;;-2.23;65.01
64602;BME280;68371;42.630;23.192;2024-01-30T08:06:26;94034.97;;;-2.26;64.57
64602;BME280;68371;42.630;23.192;2024-01-30T08:08:53;94032.25;;;-2.31;64.76
64602;BME280;68371;42.630;23.192;2024-01-30T08:11:20;94032.19;;;-2.25;65.65
64602;BME280;68371;42.630;23.192;2024-01-30T08:13:51;94029.16;;;-2.22;64.95
64602;BME280;68371;42.630;23.192;2024-01-30T08:16:17;94022.66;;;-2.24;65.51
64602;BME280;68371;42.630;23.192;2024-01-30T08:18:44;94036.53;;;-2.25;64.60
64602;BME280;68371;42.630;23.192;2024-01-30T08:21:11;94039.06;;;-2.18;66.21
64602;BME280;68371;42.630;23.192;2024-01-30T08:23:39;94034.59;;;-2.11;65.44
64602;BME280;68371;42.630;23.192;2024-01-30T08:26:06;94034.47;;;-2.16;64.54
64602;BME280;68371;42.630;23.192;2024-01-30T08:28:33;94041.47;;;-2.05;66.63
64602;BME280;68371;42.630;23.192;2024-01-30T08:31:00;94038.47;;;-2.02;64.65
64602;BME280;68371;42.630;23.192;2024-01-30T08:33:26;94050.19;;;-2.06;64.92
64602;BME280;68371;42.630;23.192;2024-01-30T08:35:53;94044.47;;;-1.90;65.48
64602;BME280;68371;42.630;23.192;2024-01-30T08:38:20;94052.00;;;-1.76;65.03
64602;BME280;68371;42.630;23.192;2024-01-30T08:40:49;94046.78;;;-1.70;64.15
64602;BME280;68371;42.630;23.192;2024-01-30T08:43:16;94057.78;;;-1.63;63.37
64602;BME280;68371;42.630;23.192;2024-01-30T08:45:42;94063.53;;;-1.49;62.03
64602;BME280;68371;42.630;23.192;2024-01-30T08:48:09;94051.88;;;-1.51;63.29
64602;BME280;68371;42.630;23.192;2024-01-30T08:50:36;94052.31;;;-1.54;61.74
64602;BME280;68371;42.630;23.192;2024-01-30T08:53:03;94068.03;;;-1.44;60.64
64602;BME280;68371;42.630;23.192;2024-01-30T08:55:30;94060.97;;;-1.49;61.65
64602;BME280;68371;42.630;23.192;2024-01-30T08:57:58;94068.69;;;-1.49;62.25
64602;BME280;68371;42.630;23.192;2024-01-30T09:00:24;94063.69;;;-1.32;63.50
64602;BME280;68371;42.630;23.192;2024-01-30T09:02:51;94063.88;;;-1.15;61.32
64602;BME280;68371;42.630;23.192;2024-01-30T09:05:18;94074.72;;;-1.25;60.33
64602;BME280;68371;42.630;23.192;2024-01-30T09:07:45;94074.00;;;-1.44;61.49
64602;BME280;68371;42.630;23.192;2024-01-30T09:10:12;94067.97;;;-1.37;61.10
64602;BME280;68371;42.630;23.192;2024-01-30T09:12:38;94067.19;;;-1.26;62.20
64602;BME280;68371;42.630;23.192;2024-01-30T09:15:08;94070.16;;;-1.11;62.84
64602;BME280;68371;42.630;23.192;2024-01-30T09:17:34;94060.06;;;-1.12;61.84
64602;BME280;68371;42.630;23.192;2024-01-30T09:20:00;94061.97;;;-1.08;61.68
64602;BME280;68371;42.630;23.192;2024-01-30T09:22:27;94053.22;;;-1.07;63.05
64602;BME280;68371;42.630;23.192;2024-01-30T09:24:54;94050.44;;;-1.05;62.45
64602;BME280;68371;42.630;23.192;2024-01-30T09:27:20;94051.09;;;-1.10;62.16
64602;BME280;68371;42.630;23.192;2024-01-30T09:29:48;94050.75;;;-1.13;62.24
64602;BME280;68371;42.630;23.192;2024-01-30T09:32:16;94055.59;;;-1.05;62.54
64602;BME280;68371;42.630;23.192;2024-01-30T09:34:44;94053.91;;;-0.99;63.06
64602;BME280;68371;42.630;23.192;2024-01-30T09:37:10;94058.09;;;-0.87;63.21
64602;BME280;68371;42.630;23.192;2024-01-30T09:39:37;94053.03;;;-0.82;64.47
64602;BME280;68371;42.630;23.192;2024-01-30T09:42:09;94061.34;;;-0.68;65.69
64602;BME280;68371;42.630;23.192;2024-01-30T09:44:38;94059.31;;;-0.54;64.75
64602;BME280;68371;42.630;23.192;2024-01-30T09:47:08;94066.28;;;-0.43;65.02
64602;BME280;68371;42.630;23.192;2024-01-30T09:49:36;94059.41;;;-0.49;64.37
64602;BME280;68371;42.630;23.192;2024-01-30T09:52:05;94056.06;;;-0.37;63.49
64602;BME280;68371;42.630;23.192;2024-01-30T09:54:32;94058.63;;;-0.37;63.44
64602;BME280;68371;42.630;23.192;2024-01-30T09:57:00;94065.59;;;-0.26;62.28
64602;BME280;68371;42.630;23.192;2024-01-30T09:59:27;94065.94;;;-0.34;62.03
64602;BME280;68371;42.630;23.192;2024-01-30T10:01:53;94062.91;;;-0.43;62.49
64602;BME280;68371;42.630;23.192;2024-01-30T10:04:22;94058.75;;;-0.32;63.04
64602;BME280;68371;42.630;23.192;2024-01-30T10:06:50;94064.56;;;-0.13;62.32
64602;BME280;68371;42.630;23.192;2024-01-30T10:09:17;94059.34;;;0.10;61.95
64602;BME280;68371;42.630;23.192;2024-01-30T10:11:44;94061.63;;;0.35;61.48
64602;BME280;68371;42.630;23.192;2024-01-30T10:14:11;94046.81;;;-0.10;61.29
64602;BME280;68371;42.630;23.192;2024-01-30T10:16:37;94043.19;;;0.03;61.24
64602;BME280;68371;42.630;23.192;2024-01-30T10:19:04;94047.84;;;0.18;61.33
64602;BME280;68371;42.630;23.192;2024-01-30T10:21:31;94039.50;;;-0.13;61.33
64602;BME280;68371;42.630;23.192;2024-01-30T10:23:59;94045.88;;;0.08;62.38
64602;BME280;68371;42.630;23.192;2024-01-30T10:26:26;94039.38;;;-0.06;61.01
64602;BME280;68371;42.630;23.192;2024-01-30T10:28:54;94037.94;;;-0.14;61.81
64602;BME280;68371;42.630;23.192;2024-01-30T10:31:22;94041.50;;;-0.03;61.78
64602;BME280;68371;42.630;23.192;2024-01-30T10:33:49;94033.25;;;0.12;60.38
64602;BME280;68371;42.630;23.192;2024-01-30T10:36:17;94038.88;;;0.21;60.91
64602;BME280;68371;42.630;23.192;2024-01-30T10:38:45;93972.13;;;-0.11;60.35
64602;BME280;68371;42.630;23.192;2024-01-30T10:41:15;94036.00;;;0.34;60.58
64602;BME280;68371;42.630;23.192;2024-01-30T10:43:50;94044.53;;;0.34;59.76
64602;BME280;68371;42.630;23.192;2024-01-30T10:46:20;94045.09;;;0.36;58.20
64602;BME280;68371;42.630;23.192;2024-01-30T10:48:56;94030.97;;;0.27;60.22
64602;BME280;68371;42.630;23.192;2024-01-30T10:51:24;94038.34;;;0.35;60.81
64602;BME280;68371;42.630;23.192;2024-01-30T10:53:53;94022.47;;;0.44;59.27
64602;BME280;68371;42.630;23.192;2024-01-30T10:56:22;94011.94;;;0.33;59.51
64602;BME280;68371;42.630;23.192;2024-01-30T10:58:50;94019.72;;;0.50;59.77
64602;BME280;68371;42.630;23.192;2024-01-30T11:01:17;94016.34;;;0.33;59.14
64602;BME280;68371;42.630;23.192;2024-01-30T11:03:50;94009.69;;;0.37;58.50
64602;BME280;68371;42.630;23.192;2024-01-30T11:06:17;93999.03;;;0.50;58.74
64602;BME280;68371;42.630;23.192;2024-01-30T11:08:44;94012.94;;;0.61;59.40
64602;BME280;68371;42.630;23.192;2024-01-30T11:11:12;94002.88;;;0.48;58.57
64602;BME280;68371;42.630;23.192;2024-01-30T11:13:40;93995.44;;;0.51;58.25
64602;BME280;68371;42.630;23.192;2024-01-30T11:16:06;94002.72;;;0.54;59.55
64602;BME280;68371;42.630;23.192;2024-01-30T11:18:35;93988.41;;;0.64;58.70
64602;BME280;68371;42.630;23.192;2024-01-30T11:21:04;93998.16;;;0.73;58.85
64602;BME280;68371;42.630;23.192;2024-01-30T11:23:33;94000.81;;;0.78;59.21
64602;BME280;68371;42.630;23.192;2024-01-30T11:26:00;93991.16;;;0.74;57.82
64602;BME280;68371;42.630;23.192;2024-01-30T11:28:32;93993.66;;;0.69;58.22
64602;BME280;68371;42.630;23.192;2024-01-30T11:31:05;93990.44;;;0.62;58.48
64602;BME280;68371;42.630;23.192;2024-01-30T11:33:33;94004.63;;;0.59;57.58
64602;BME280;68371;42.630;23.192;2024-01-30T11:36:00;93971.31;;;0.63;58.34
64602;BME280;68371;42.630;23.192;2024-01-30T11:38:28;94004.31;;;0.72;58.29
64602;BME280;68371;42.630;23.192;2024-01-30T11:40:56;93996.94;;;0.64;58.08
64602;BME280;68371;42.630;23.192;2024-01-30T11:43:23;94005.34;;;0.88;58.12
64602;BME280;68371;42.630;23.192;2024-01-30T11:45:50;93998.13;;;0.90;57.82
64602;BME280;68371;42.630;23.192;2024-01-30T11:48:19;93988.25;;;1.04;59.63
64602;BME280;68371;42.630;23.192;2024-01-30T11:50:46;93999.47;;;1.10;58.04
64602;BME280;68371;42.630;23.192;2024-01-30T11:53:12;93988.31;;;1.09;57.11
64602;BME280;68371;42.630;23.192;2024-01-30T11:55:39;93981.03;;;1.06;57.33
64602;BME280;68371;42.630;23.192;2024-01-30T11:58:06;93979.50;;;1.27;57.58
64602;BME280;68371;42.630;23.192;2024-01-30T12:00:33;93979.84;;;1.31;56.77
64602;BME280;68371;42.630;23.192;2024-01-30T12:02:59;93981.00;;;1.23;58.15
64602;BME280;68371;42.630;23.192;2024-01-30T12:05:28;93970.66;;;1.40;57.14
64602;BME280;68371;42.630;23.192;2024-01-30T12:07:54;93965.66;;;1.16;56.73
64602;BME280;68371;42.630;23.192;2024-01-30T12:10:24;93966.59;;;1.10;56.47
64602;BME280;68371;42.630;23.192;2024-01-30T12:12:52;93957.25;;;1.09;57.22
64602;BME280;68371;42.630;23.192;2024-01-30T12:15:21;93957.25;;;1.09;56.81
64602;BME280;68371;42.630;23.192;2024-01-30T12:17:48;93957.66;;;1.01;56.96
64602;BME280;68371;42.630;23.192;2024-01-30T12:20:18;93955.91;;;1.24;57.12
64602;BME280;68371;42.630;23.192;2024-01-30T12:22:47;93943.41;;;1.37;56.64
64602;BME280;68371;42.630;23.192;2024-01-30T12:25:16;93946.19;;;1.53;54.97
64602;BME280;68371;42.630;23.192;2024-01-30T12:27:45;93941.78;;;1.53;54.88
64602;BME280;68371;42.630;23.192;2024-01-30T12:30:15;93934.84;;;1.37;55.22
64602;BME280;68371;42.630;23.192;2024-01-30T12:32:43;93931.00;;;1.39;56.28
64602;BME280;68371;42.630;23.192;2024-01-30T12:35:11;93916.31;;;1.45;54.71
64602;BME280;68371;42.630;23.192;2024-01-30T12:37:39;93933.91;;;1.65;54.98
64602;BME280;68371;42.630;23.192;2024-01-30T12:40:08;93933.81;;;1.60;55.29
64602;BME280;68371;42.630;23.192;2024-01-30T12:42:34;93924.44;;;1.76;54.48
64602;BME280;68371;42.630;23.192;2024-01-30T12:45:03;93925.66;;;1.46;53.89
64602;BME280;68371;42.630;23.192;2024-01-30T12:47:30;93926.56;;;1.57;54.99
64602;BME280;68371;42.630;23.192;2024-01-30T12:49:58;93924.84;;;1.46;54.29
64602;BME280;68371;42.630;23.192;2024-01-30T12:52:25;93911.72;;;1.30;55.38